sensor_id;sensor_type;location;lat;lon;timestamp;temperature;humidity
39103;DHT22;24847;48.218;16.414;2023-02-28T00:03:11;0.60;99.90
39103;DHT22;24847;48.218;16.414;2023-02-28T00:08:13;0.50;99.90
39103;DHT22;24847;48.218;16.414;2023-02-28T00:13:17;0.40;99.90
39103;DHT22;24847;48.218;16.414;2023-02-28T00:18:19;0.50;99.90
39103;DHT22;24847;48.218;16.414;2023-02-28T00:23:21;0.30;99.90
39103;DHT22;24847;48.218;16.414;2023-02-28T00:28:25;0.20;99.90
39103;DHT22;24847;48.218;16.414;2023-02-28T00:33:28;0.20;99.90
39103;DHT22;24847;48.218;16.414;2023-02-28T00:38:30;0.30;99.90
39103;DHT22;24847;48.218;16.414;2023-02-28T00:43:36;0.20;99.90
39103;DHT22;24847;48.218;16.414;2023-02-28T00:48:40;0.20;99.90
39103;DHT22;24847;48.218;16.414;2023-02-28T00:53:42;0.30;99.90
39103;DHT22;24847;48.218;16.414;2023-02-28T00:58:47;0.10;99.90
39103;DHT22;24847;48.218;16.414;2023-02-28T01:03:49;0.10;99.90
39103;DHT22;24847;48.218;16.414;2023-02-28T01:08:51;0.30;99.90
39103;DHT22;24847;48.218;16.414;2023-02-28T01:13:55;0.20;99.90
39103;DHT22;24847;48.218;16.414;2023-02-28T01:18:58;0.00;99.90
39103;DHT22;24847;48.218;16.414;2023-02-28T01:24:00;0.10;99.90
39103;DHT22;24847;48.218;16.414;2023-02-28T01:29:04;0.10;99.90
39103;DHT22;24847;48.218;16.414;2023-02-28T01:34:06;0.10;99.90
39103;DHT22;24847;48.218;16.414;2023-02-28T01:39:08;-0.10;99.90
39103;DHT22;24847;48.218;16.414;2023-02-28T01:50:02;0.00;99.90
39103;DHT22;24847;48.218;16.414;2023-02-28T01:55:08;0.10;99.90
39103;DHT22;24847;48.218;16.414;2023-02-28T02:00:16;0.10;99.90
39103;DHT22;24847;48.218;16.414;2023-02-28T02:05:22;0.10;99.90
39103;DHT22;24847;48.218;16.414;2023-02-28T02:10:29;0.10;99.90
39103;DHT22;24847;48.218;16.414;2023-02-28T02:15:39;0.10;99.90
39103;DHT22;24847;48.218;16.414;2023-02-28T02:21:14;-0.10;99.90
39103;DHT22;24847;48.218;16.414;2023-02-28T02:26:52;0.00;99.90
39103;DHT22;24847;48.218;16.414;2023-02-28T02:32:34;0.00;99.90
39103;DHT22;24847;48.218;16.414;2023-02-28T02:37:52;0.00;99.90
39103;DHT22;24847;48.218;16.414;2023-02-28T02:43:02;0.00;99.90
39103;DHT22;24847;48.218;16.414;2023-02-28T02:48:11;0.10;99.90
39103;DHT22;24847;48.218;16.414;2023-02-28T02:53:19;0.00;99.90
39103;DHT22;24847;48.218;16.414;2023-02-28T02:58:26;-0.10;99.90
39103;DHT22;24847;48.218;16.414;2023-02-28T03:03:31;-0.10;99.90
39103;DHT22;24847;48.218;16.414;2023-02-28T03:08:37;-0.10;99.90
39103;DHT22;24847;48.218;16.414;2023-02-28T03:14:04;0.00;99.90
39103;DHT22;24847;48.218;16.414;2023-02-28T03:19:28;0.00;99.90
39103;DHT22;24847;48.218;16.414;2023-02-28T03:24:43;-0.20;99.90
39103;DHT22;24847;48.218;16.414;2023-02-28T03:29:50;-0.30;99.90
39103;DHT22;24847;48.218;16.414;2023-02-28T03:34:58;-0.30;99.90
39103;DHT22;24847;48.218;16.414;2023-02-28T03:40:09;-0.30;99.90
39103;DHT22;24847;48.218;16.414;2023-02-28T03:45:16;-0.20;99.90
39103;DHT22;24847;48.218;16.414;2023-02-28T03:50:23;-0.30;99.90
39103;DHT22;24847;48.218;16.414;2023-02-28T03:55:32;-0.20;99.90
39103;DHT22;24847;48.218;16.414;2023-02-28T04:00:38;-0.30;99.90
39103;DHT22;24847;48.218;16.414;2023-02-28T04:05:51;-0.30;99.90
39103;DHT22;24847;48.218;16.414;2023-02-28T04:11:00;-0.30;99.90
39103;DHT22;24847;48.218;16.414;2023-02-28T04:16:06;-0.30;99.90
39103;DHT22;24847;48.218;16.414;2023-02-28T04:21:13;-0.20;99.90
39103;DHT22;24847;48.218;16.414;2023-02-28T04:26:16;-0.10;99.90
39103;DHT22;24847;48.218;16.414;2023-02-28T04:31:19;-0.10;99.90
39103;DHT22;24847;48.218;16.414;2023-02-28T04:36:21;-0.20;99.90
39103;DHT22;24847;48.218;16.414;2023-02-28T04:41:25;-0.30;99.90
39103;DHT22;24847;48.218;16.414;2023-02-28T04:46:27;-0.20;99.90
39103;DHT22;24847;48.218;16.414;2023-02-28T04:51:29;-0.30;99.90
39103;DHT22;24847;48.218;16.414;2023-02-28T04:56:33;-0.30;99.90
39103;DHT22;24847;48.218;16.414;2023-02-28T05:01:36;-0.50;99.90
39103;DHT22;24847;48.218;16.414;2023-02-28T05:06:38;-0.40;99.90
39103;DHT22;24847;48.218;16.414;2023-02-28T05:11:42;-0.50;99.90
39103;DHT22;24847;48.218;16.414;2023-02-28T05:16:47;-0.60;99.90
39103;DHT22;24847;48.218;16.414;2023-02-28T05:21:51;-0.40;99.90
39103;DHT22;24847;48.218;16.414;2023-02-28T05:26:56;-0.40;99.90
39103;DHT22;24847;48.218;16.414;2023-02-28T05:32:00;-0.40;99.90
39103;DHT22;24847;48.218;16.414;2023-02-28T05:37:02;-0.40;99.90
39103;DHT22;24847;48.218;16.414;2023-02-28T05:42:06;-0.40;99.90
39103;DHT22;24847;48.218;16.414;2023-02-28T05:47:09;-0.40;99.90
39103;DHT22;24847;48.218;16.414;2023-02-28T05:52:14;-0.50;99.90
39103;DHT22;24847;48.218;16.414;2023-02-28T05:57:18;-0.50;99.90
39103;DHT22;24847;48.218;16.414;2023-02-28T06:02:20;-0.50;99.90
39103;DHT22;24847;48.218;16.414;2023-02-28T06:07:22;-0.40;99.90
39103;DHT22;24847;48.218;16.414;2023-02-28T06:12:26;-0.70;99.90
39103;DHT22;24847;48.218;16.414;2023-02-28T06:17:28;-0.50;99.90
39103;DHT22;24847;48.218;16.414;2023-02-28T06:22:31;-0.40;99.90
39103;DHT22;24847;48.218;16.414;2023-02-28T06:27:34;-0.50;99.90
39103;DHT22;24847;48.218;16.414;2023-02-28T06:32:36;-0.60;99.90
39103;DHT22;24847;48.218;16.414;2023-02-28T06:37:39;-0.30;99.90
39103;DHT22;24847;48.218;16.414;2023-02-28T06:42:43;-0.50;99.90
39103;DHT22;24847;48.218;16.414;2023-02-28T06:47:46;-0.30;99.90
39103;DHT22;24847;48.218;16.414;2023-02-28T06:52:52;-0.30;99.90
39103;DHT22;24847;48.218;16.414;2023-02-28T06:57:57;-0.10;99.90
39103;DHT22;24847;48.218;16.414;2023-02-28T07:03:00;0.10;99.90
39103;DHT22;24847;48.218;16.414;2023-02-28T07:08:03;-0.10;99.90
39103;DHT22;24847;48.218;16.414;2023-02-28T07:13:08;-0.40;99.90
39103;DHT22;24847;48.218;16.414;2023-02-28T07:18:10;0.00;99.90
39103;DHT22;24847;48.218;16.414;2023-02-28T07:23:13;-0.10;99.90
39103;DHT22;24847;48.218;16.414;2023-02-28T07:28:17;0.10;99.90
39103;DHT22;24847;48.218;16.414;2023-02-28T07:33:19;0.20;99.90
39103;DHT22;24847;48.218;16.414;2023-02-28T07:38:21;0.40;99.90
39103;DHT22;24847;48.218;16.414;2023-02-28T07:43:25;0.20;99.90
39103;DHT22;24847;48.218;16.414;2023-02-28T07:48:27;0.40;99.90
39103;DHT22;24847;48.218;16.414;2023-02-28T07:53:30;0.30;99.90
39103;DHT22;24847;48.218;16.414;2023-02-28T07:58:33;0.60;99.90
39103;DHT22;24847;48.218;16.414;2023-02-28T08:03:36;0.50;99.90
39103;DHT22;24847;48.218;16.414;2023-02-28T08:08:39;0.90;99.90
39103;DHT22;24847;48.218;16.414;2023-02-28T08:13:43;0.90;99.90
39103;DHT22;24847;48.218;16.414;2023-02-28T08:18:46;1.00;99.90
39103;DHT22;24847;48.218;16.414;2023-02-28T08:23:48;1.10;99.90
39103;DHT22;24847;48.218;16.414;2023-02-28T08:28:53;1.30;99.90
39103;DHT22;24847;48.218;16.414;2023-02-28T08:33:55;1.70;99.90
39103;DHT22;24847;48.218;16.414;2023-02-28T08:38:59;2.00;99.90
39103;DHT22;24847;48.218;16.414;2023-02-28T08:44:03;1.80;99.90
39103;DHT22;24847;48.218;16.414;2023-02-28T08:49:06;2.10;99.90
39103;DHT22;24847;48.218;16.414;2023-02-28T08:54:10;2.10;99.90
39103;DHT22;24847;48.218;16.414;2023-02-28T08:59:15;2.50;99.90
39103;DHT22;24847;48.218;16.414;2023-02-28T09:04:17;2.80;99.90
39103;DHT22;24847;48.218;16.414;2023-02-28T09:09:20;2.80;99.90
39103;DHT22;24847;48.218;16.414;2023-02-28T09:14:23;2.60;99.90
39103;DHT22;24847;48.218;16.414;2023-02-28T09:19:25;2.90;99.90
39103;DHT22;24847;48.218;16.414;2023-02-28T09:24:28;3.10;99.90
39103;DHT22;24847;48.218;16.414;2023-02-28T09:29:34;4.00;99.90
39103;DHT22;24847;48.218;16.414;2023-02-28T09:34:36;4.40;99.90
39103;DHT22;24847;48.218;16.414;2023-02-28T09:39:39;3.90;99.90
39103;DHT22;24847;48.218;16.414;2023-02-28T09:44:45;4.20;99.90
39103;DHT22;24847;48.218;16.414;2023-02-28T09:49:49;5.10;99.90
39103;DHT22;24847;48.218;16.414;2023-02-28T09:54:51;3.90;99.90
39103;DHT22;24847;48.218;16.414;2023-02-28T10:00:05;3.30;99.90
39103;DHT22;24847;48.218;16.414;2023-02-28T10:05:14;3.00;99.90
39103;DHT22;24847;48.218;16.414;2023-02-28T10:10:22;3.20;99.90
39103;DHT22;24847;48.218;16.414;2023-02-28T10:15:31;3.30;99.90
39103;DHT22;24847;48.218;16.414;2023-02-28T10:20:37;3.90;99.90
39103;DHT22;24847;48.218;16.414;2023-02-28T10:25:45;4.10;99.90
39103;DHT22;24847;48.218;16.414;2023-02-28T10:30:54;4.50;99.90
39103;DHT22;24847;48.218;16.414;2023-02-28T10:35:57;5.40;99.90
39103;DHT22;24847;48.218;16.414;2023-02-28T10:41:05;6.30;99.90
39103;DHT22;24847;48.218;16.414;2023-02-28T10:46:15;6.60;99.90
39103;DHT22;24847;48.218;16.414;2023-02-28T10:51:34;7.40;99.90
39103;DHT22;24847;48.218;16.414;2023-02-28T10:56:38;7.90;99.90
39103;DHT22;24847;48.218;16.414;2023-02-28T11:01:43;8.60;99.90
39103;DHT22;24847;48.218;16.414;2023-02-28T11:06:57;8.30;99.90
39103;DHT22;24847;48.218;16.414;2023-02-28T11:12:01;8.90;99.90
39103;DHT22;24847;48.218;16.414;2023-02-28T11:17:17;8.60;99.90
39103;DHT22;24847;48.218;16.414;2023-02-28T11:22:24;9.30;99.90
39103;DHT22;24847;48.218;16.414;2023-02-28T11:27:57;8.10;99.90
39103;DHT22;24847;48.218;16.414;2023-02-28T11:33:20;6.60;99.90
39103;DHT22;24847;48.218;16.414;2023-02-28T11:38:25;6.90;99.90
39103;DHT22;24847;48.218;16.414;2023-02-28T11:43:37;6.50;99.90
39103;DHT22;24847;48.218;16.414;2023-02-28T11:48:53;5.90;99.90
39103;DHT22;24847;48.218;16.414;2023-02-28T11:54:21;6.20;99.90
39103;DHT22;24847;48.218;16.414;2023-02-28T11:59:43;5.30;99.90
39103;DHT22;24847;48.218;16.414;2023-02-28T12:05:10;5.30;99.90
39103;DHT22;24847;48.218;16.414;2023-02-28T12:10:24;5.10;99.90
39103;DHT22;24847;48.218;16.414;2023-02-28T12:15:48;5.00;99.90
39103;DHT22;24847;48.218;16.414;2023-02-28T12:21:21;4.80;99.90
39103;DHT22;24847;48.218;16.414;2023-02-28T12:26:52;5.50;99.90
39103;DHT22;24847;48.218;16.414;2023-02-28T12:32:25;5.30;99.90
39103;DHT22;24847;48.218;16.414;2023-02-28T12:37:35;5.60;99.90
39103;DHT22;24847;48.218;16.414;2023-02-28T12:42:43;6.60;99.90
39103;DHT22;24847;48.218;16.414;2023-02-28T12:47:52;6.60;99.90
39103;DHT22;24847;48.218;16.414;2023-02-28T12:53:02;6.60;99.90
39103;DHT22;24847;48.218;16.414;2023-02-28T12:58:12;6.90;99.90
39103;DHT22;24847;48.218;16.414;2023-02-28T13:03:51;7.10;99.90
39103;DHT22;24847;48.218;16.414;2023-02-28T13:09:04;6.40;99.90
39103;DHT22;24847;48.218;16.414;2023-02-28T13:14:22;6.50;99.90
39103;DHT22;24847;48.218;16.414;2023-02-28T13:19:28;6.70;99.90
39103;DHT22;24847;48.218;16.414;2023-02-28T13:24:47;7.00;99.90
39103;DHT22;24847;48.218;16.414;2023-02-28T13:29:52;6.60;99.90
39103;DHT22;24847;48.218;16.414;2023-02-28T13:35:15;6.80;99.90
39103;DHT22;24847;48.218;16.414;2023-02-28T13:40:39;5.90;99.90
39103;DHT22;24847;48.218;16.414;2023-02-28T13:46:10;6.20;99.90
39103;DHT22;24847;48.218;16.414;2023-02-28T13:51:38;5.90;99.90
39103;DHT22;24847;48.218;16.414;2023-02-28T13:56:48;5.90;99.90
39103;DHT22;24847;48.218;16.414;2023-02-28T14:02:03;6.10;99.90
39103;DHT22;24847;48.218;16.414;2023-02-28T14:07:30;6.00;99.90
39103;DHT22;24847;48.218;16.414;2023-02-28T14:12:57;5.40;99.90
39103;DHT22;24847;48.218;16.414;2023-02-28T14:18:11;5.30;99.90
39103;DHT22;24847;48.218;16.414;2023-02-28T14:23:35;5.30;99.90
39103;DHT22;24847;48.218;16.414;2023-02-28T14:28:53;5.10;99.90
39103;DHT22;24847;48.218;16.414;2023-02-28T14:34:16;5.40;99.90
39103;DHT22;24847;48.218;16.414;2023-02-28T14:39:25;5.20;99.90
39103;DHT22;24847;48.218;16.414;2023-02-28T14:44:29;5.10;99.90
39103;DHT22;24847;48.218;16.414;2023-02-28T14:49:34;4.90;99.90
39103;DHT22;24847;48.218;16.414;2023-02-28T14:54:39;4.70;99.90
39103;DHT22;24847;48.218;16.414;2023-02-28T14:59:43;4.80;99.90
39103;DHT22;24847;48.218;16.414;2023-02-28T15:04:53;4.90;99.90
39103;DHT22;24847;48.218;16.414;2023-02-28T15:10:13;4.90;99.90
39103;DHT22;24847;48.218;16.414;2023-02-28T15:15:21;4.70;99.90
39103;DHT22;24847;48.218;16.414;2023-02-28T15:20:24;4.60;99.90
39103;DHT22;24847;48.218;16.414;2023-02-28T15:25:27;4.60;99.90
39103;DHT22;24847;48.218;16.414;2023-02-28T15:30:31;4.40;99.90
39103;DHT22;24847;48.218;16.414;2023-02-28T15:35:34;4.50;99.90
39103;DHT22;24847;48.218;16.414;2023-02-28T15:40:40;4.40;99.90
39103;DHT22;24847;48.218;16.414;2023-02-28T15:45:47;4.50;99.90
39103;DHT22;24847;48.218;16.414;2023-02-28T15:50:53;4.60;99.90
39103;DHT22;24847;48.218;16.414;2023-02-28T15:56:02;4.50;99.90
39103;DHT22;24847;48.218;16.414;2023-02-28T16:01:17;4.40;99.90
39103;DHT22;24847;48.218;16.414;2023-02-28T16:06:39;4.40;99.90
39103;DHT22;24847;48.218;16.414;2023-02-28T16:11:45;4.40;99.90
39103;DHT22;24847;48.218;16.414;2023-02-28T16:16:52;4.40;99.90
39103;DHT22;24847;48.218;16.414;2023-02-28T16:21:55;4.30;99.90
39103;DHT22;24847;48.218;16.414;2023-02-28T16:26:58;4.30;99.90
39103;DHT22;24847;48.218;16.414;2023-02-28T16:32:04;4.40;99.90
39103;DHT22;24847;48.218;16.414;2023-02-28T16:37:11;4.30;99.90
39103;DHT22;24847;48.218;16.414;2023-02-28T16:42:18;4.30;99.90
39103;DHT22;24847;48.218;16.414;2023-02-28T16:47:26;4.30;99.90
39103;DHT22;24847;48.218;16.414;2023-02-28T16:52:32;4.20;99.90
39103;DHT22;24847;48.218;16.414;2023-02-28T16:57:35;4.20;99.90
39103;DHT22;24847;48.218;16.414;2023-02-28T17:02:39;4.10;99.90
39103;DHT22;24847;48.218;16.414;2023-02-28T17:07:42;4.10;99.90
39103;DHT22;24847;48.218;16.414;2023-02-28T17:12:45;4.10;99.90
39103;DHT22;24847;48.218;16.414;2023-02-28T17:17:49;4.20;99.90
39103;DHT22;24847;48.218;16.414;2023-02-28T17:22:52;4.10;99.90
39103;DHT22;24847;48.218;16.414;2023-02-28T17:27:56;4.00;99.90
39103;DHT22;24847;48.218;16.414;2023-02-28T17:33:00;4.10;99.90
39103;DHT22;24847;48.218;16.414;2023-02-28T17:38:03;4.10;99.90
39103;DHT22;24847;48.218;16.414;2023-02-28T17:43:06;4.10;99.90
39103;DHT22;24847;48.218;16.414;2023-02-28T17:48:14;4.20;99.90
39103;DHT22;24847;48.218;16.414;2023-02-28T17:53:17;4.10;99.90
39103;DHT22;24847;48.218;16.414;2023-02-28T17:58:24;3.90;99.90
39103;DHT22;24847;48.218;16.414;2023-02-28T18:03:27;3.70;99.90
39103;DHT22;24847;48.218;16.414;2023-02-28T18:08:33;3.80;99.90
39103;DHT22;24847;48.218;16.414;2023-02-28T18:13:38;3.60;99.90
39103;DHT22;24847;48.218;16.414;2023-02-28T18:18:45;3.60;99.90
39103;DHT22;24847;48.218;16.414;2023-02-28T18:23:48;3.70;99.90
39103;DHT22;24847;48.218;16.414;2023-02-28T18:28:53;3.60;99.90
39103;DHT22;24847;48.218;16.414;2023-02-28T18:33:59;3.40;99.90
39103;DHT22;24847;48.218;16.414;2023-02-28T18:39:03;3.40;99.90
39103;DHT22;24847;48.218;16.414;2023-02-28T18:44:07;3.40;99.90
39103;DHT22;24847;48.218;16.414;2023-02-28T18:49:12;3.50;99.90
39103;DHT22;24847;48.218;16.414;2023-02-28T18:54:16;3.30;99.90
39103;DHT22;24847;48.218;16.414;2023-02-28T18:59:19;3.30;99.90
39103;DHT22;24847;48.218;16.414;2023-02-28T19:04:28;3.20;99.90
39103;DHT22;24847;48.218;16.414;2023-02-28T19:09:34;3.10;99.90
39103;DHT22;24847;48.218;16.414;2023-02-28T19:14:38;3.10;99.90
39103;DHT22;24847;48.218;16.414;2023-02-28T19:19:43;3.20;99.90
39103;DHT22;24847;48.218;16.414;2023-02-28T19:24:48;3.00;99.90
39103;DHT22;24847;48.218;16.414;2023-02-28T19:29:54;2.80;99.90
39103;DHT22;24847;48.218;16.414;2023-02-28T19:35:01;2.70;99.90
39103;DHT22;24847;48.218;16.414;2023-02-28T19:40:06;2.80;99.90
39103;DHT22;24847;48.218;16.414;2023-02-28T19:45:11;2.70;99.90
39103;DHT22;24847;48.218;16.414;2023-02-28T19:50:17;2.60;99.90
39103;DHT22;24847;48.218;16.414;2023-02-28T19:55:23;2.70;99.90
39103;DHT22;24847;48.218;16.414;2023-02-28T20:00:27;2.70;99.90
39103;DHT22;24847;48.218;16.414;2023-02-28T20:05:31;2.60;99.90
39103;DHT22;24847;48.218;16.414;2023-02-28T20:10:35;2.50;99.90
39103;DHT22;24847;48.218;16.414;2023-02-28T20:15:38;2.40;99.90
39103;DHT22;24847;48.218;16.414;2023-02-28T20:20:42;2.50;99.90
39103;DHT22;24847;48.218;16.414;2023-02-28T20:25:47;2.40;99.90
39103;DHT22;24847;48.218;16.414;2023-02-28T20:30:52;2.30;99.90
39103;DHT22;24847;48.218;16.414;2023-02-28T20:36:01;2.30;99.90
39103;DHT22;24847;48.218;16.414;2023-02-28T20:41:05;2.30;99.90
39103;DHT22;24847;48.218;16.414;2023-02-28T20:46:09;2.20;99.90
39103;DHT22;24847;48.218;16.414;2023-02-28T20:51:13;2.20;99.90
39103;DHT22;24847;48.218;16.414;2023-02-28T20:56:18;2.20;99.90
39103;DHT22;24847;48.218;16.414;2023-02-28T21:01:24;2.30;99.90
39103;DHT22;24847;48.218;16.414;2023-02-28T21:06:32;2.10;99.90
39103;DHT22;24847;48.218;16.414;2023-02-28T21:11:37;2.10;99.90
39103;DHT22;24847;48.218;16.414;2023-02-28T21:16:42;2.00;99.90
39103;DHT22;24847;48.218;16.414;2023-02-28T21:21:45;1.90;99.90
39103;DHT22;24847;48.218;16.414;2023-02-28T21:26:48;2.00;99.90
39103;DHT22;24847;48.218;16.414;2023-02-28T21:31:52;1.90;99.90
39103;DHT22;24847;48.218;16.414;2023-02-28T21:36:57;1.80;99.90
39103;DHT22;24847;48.218;16.414;2023-02-28T21:41:59;1.90;99.90
39103;DHT22;24847;48.218;16.414;2023-02-28T21:47:03;1.70;99.90
39103;DHT22;24847;48.218;16.414;2023-02-28T21:52:07;1.90;99.90
39103;DHT22;24847;48.218;16.414;2023-02-28T21:57:09;1.80;99.90
39103;DHT22;24847;48.218;16.414;2023-02-28T22:02:13;1.70;99.90
39103;DHT22;24847;48.218;16.414;2023-02-28T22:07:17;1.60;99.90
39103;DHT22;24847;48.218;16.414;2023-02-28T22:12:23;1.80;99.90
39103;DHT22;24847;48.218;16.414;2023-02-28T22:17:29;1.80;99.90
39103;DHT22;24847;48.218;16.414;2023-02-28T22:22:35;1.40;99.90
39103;DHT22;24847;48.218;16.414;2023-02-28T22:27:41;1.30;99.90
39103;DHT22;24847;48.218;16.414;2023-02-28T22:32:53;1.20;99.90
39103;DHT22;24847;48.218;16.414;2023-02-28T22:37:58;1.50;99.90
39103;DHT22;24847;48.218;16.414;2023-02-28T22:43:00;1.40;99.90
39103;DHT22;24847;48.218;16.414;2023-02-28T22:48:06;1.40;99.90
39103;DHT22;24847;48.218;16.414;2023-02-28T22:53:12;1.40;99.90
39103;DHT22;24847;48.218;16.414;2023-02-28T22:58:14;1.30;99.90
39103;DHT22;24847;48.218;16.414;2023-02-28T23:03:18;1.20;99.90
39103;DHT22;24847;48.218;16.414;2023-02-28T23:08:22;1.20;99.90
39103;DHT22;24847;48.218;16.414;2023-02-28T23:13:25;1.10;99.90
39103;DHT22;24847;48.218;16.414;2023-02-28T23:18:27;1.10;99.90
39103;DHT22;24847;48.218;16.414;2023-02-28T23:23:30;1.20;99.90
39103;DHT22;24847;48.218;16.414;2023-02-28T23:28:34;1.00;99.90
39103;DHT22;24847;48.218;16.414;2023-02-28T23:33:37;1.10;99.90
39103;DHT22;24847;48.218;16.414;2023-02-28T23:38:46;1.00;99.90
39103;DHT22;24847;48.218;16.414;2023-02-28T23:43:50;1.10;99.90
39103;DHT22;24847;48.218;16.414;2023-02-28T23:48:57;1.10;99.90
39103;DHT22;24847;48.218;16.414;2023-02-28T23:54:04;1.20;99.90
39103;DHT22;24847;48.218;16.414;2023-02-28T23:59:06;1.10;99.90
